createdAt,value
2018-11-29T00:00:26.154Z,92.18
2018-11-29T00:02:54.412Z,92.00
2018-11-29T00:05:23.918Z,92.31
2018-11-29T00:07:52.256Z,91.80
2018-11-29T00:10:21.567Z,91.53
2018-11-29T00:12:49.880Z,91.69
2018-11-29T00:15:18.428Z,91.08
2018-11-29T00:17:46.692Z,91.34
2018-11-29T00:20:18.696Z,91.30
2018-11-29T00:22:47.732Z,91.58
2018-11-29T00:25:17.475Z,91.79
2018-11-29T00:27:46.198Z,91.56
2018-11-29T00:30:18.322Z,91.97
2018-11-29T00:32:46.592Z,91.89
2018-11-29T00:35:15.489Z,91.71
2018-11-29T00:37:43.774Z,91.57
2018-11-29T00:40:16.777Z,91.06
2018-11-29T00:42:45.786Z,90.43
2018-11-29T00:45:14.645Z,89.50
2018-11-29T00:47:43.106Z,90.10
2018-11-29T00:50:12.296Z,89.94
2018-11-29T00:52:41.383Z,90.36
2018-11-29T00:55:12.555Z,90.27
2018-11-29T00:57:40.922Z,90.60
2018-11-29T01:00:14.909Z,90.96
2018-11-29T01:02:43.310Z,90.66
2018-11-29T01:05:11.648Z,91.09
2018-11-29T01:07:39.990Z,90.96
2018-11-29T01:10:13.977Z,91.35
2018-11-29T01:12:42.343Z,91.26
2018-11-29T01:15:17.282Z,90.63
2018-11-29T01:17:47.141Z,90.54
2018-11-29T01:20:16.411Z,90.97
2018-11-29T01:22:44.704Z,90.25
2018-11-29T01:25:13.800Z,90.73
2018-11-29T01:27:42.745Z,91.06
2018-11-29T01:30:18.867Z,90.29
2018-11-29T01:32:47.097Z,91.07
2018-11-29T01:35:16.390Z,90.21
2018-11-29T01:37:44.663Z,90.45
2018-11-29T01:40:19.861Z,89.38
2018-11-29T01:42:49.329Z,89.76
2018-11-29T01:45:17.545Z,90.27
2018-11-29T01:47:45.716Z,90.31
2018-11-29T01:50:13.942Z,90.39
2018-11-29T01:52:42.113Z,90.40
2018-11-29T01:55:10.492Z,90.46
2018-11-29T01:57:38.761Z,89.96
2018-11-29T02:00:09.287Z,90.13
2018-11-29T02:02:38.038Z,90.52
2018-11-29T02:05:07.588Z,90.34
2018-11-29T02:07:36.056Z,90.18
2018-11-29T02:10:10.213Z,90.25
2018-11-29T02:12:38.448Z,90.31
2018-11-29T02:15:07.434Z,90.21
2018-11-29T02:17:35.913Z,90.15
2018-11-29T02:20:05.326Z,90.55
2018-11-29T02:22:33.533Z,90.60
2018-11-29T02:25:01.768Z,90.36
2018-11-29T02:27:29.922Z,90.61
2018-11-29T02:29:58.176Z,90.38
2018-11-29T02:32:26.404Z,90.56
2018-11-29T02:34:54.569Z,90.15
2018-11-29T02:37:22.742Z,90.95
2018-11-29T02:39:50.913Z,90.85
2018-11-29T02:42:19.189Z,90.64
2018-11-29T02:44:47.370Z,90.10
2018-11-29T02:47:16.008Z,90.65
2018-11-29T02:49:44.217Z,90.59
2018-11-29T02:52:12.392Z,89.50
2018-11-29T02:54:40.635Z,90.37
2018-11-29T02:57:08.835Z,89.31
2018-11-29T02:59:37.043Z,89.11
2018-11-29T03:02:05.488Z,88.89
2018-11-29T03:04:33.664Z,89.30
2018-11-29T03:07:01.852Z,89.08
2018-11-29T03:09:30.016Z,89.25
2018-11-29T03:11:58.777Z,89.01
2018-11-29T03:14:26.981Z,89.02
2018-11-29T03:16:55.217Z,89.67
2018-11-29T03:19:23.391Z,89.21
2018-11-29T03:21:51.562Z,89.93
2018-11-29T03:24:19.896Z,90.21
2018-11-29T03:26:48.151Z,89.77
2018-11-29T03:29:16.328Z,89.59
2018-11-29T03:31:44.518Z,89.73
2018-11-29T03:34:12.780Z,89.68
2018-11-29T03:36:40.973Z,89.47
2018-11-29T03:39:09.216Z,89.12
2018-11-29T03:41:37.609Z,89.70
2018-11-29T03:44:05.788Z,89.71
2018-11-29T03:46:34.034Z,88.19
2018-11-29T03:49:02.221Z,89.00
2018-11-29T03:51:30.387Z,88.89
2018-11-29T03:53:58.605Z,89.01
2018-11-29T03:56:26.768Z,88.84
2018-11-29T03:58:55.024Z,89.01
2018-11-29T04:01:23.210Z,89.72
2018-11-29T04:03:51.496Z,88.80
2018-11-29T04:06:19.697Z,88.82
2018-11-29T04:08:47.911Z,88.57
2018-11-29T04:11:16.077Z,88.60
2018-11-29T04:13:44.261Z,89.13
2018-11-29T04:16:12.430Z,89.86
2018-11-29T04:18:40.666Z,89.41
2018-11-29T04:21:08.828Z,89.37
2018-11-29T04:23:37.021Z,89.66
2018-11-29T04:26:05.895Z,89.67
2018-11-29T04:28:34.084Z,89.92
2018-11-29T04:31:02.241Z,89.47
2018-11-29T04:33:30.609Z,89.39
2018-11-29T04:35:58.858Z,88.97
2018-11-29T04:38:27.097Z,88.74
2018-11-29T04:40:55.397Z,88.77
2018-11-29T04:43:23.584Z,88.67
2018-11-29T04:46:02.948Z,88.83
2018-11-29T04:48:31.182Z,88.60
2018-11-29T04:50:59.359Z,88.41
2018-11-29T04:53:27.529Z,88.30
2018-11-29T04:55:55.740Z,88.69
2018-11-29T04:58:24.008Z,88.99
2018-11-29T05:00:52.250Z,88.81
2018-11-29T05:03:20.677Z,88.97
2018-11-29T05:05:48.921Z,89.21
2018-11-29T05:08:17.626Z,88.66
2018-11-29T05:10:45.781Z,89.32
2018-11-29T05:13:14.040Z,89.40
2018-11-29T05:15:42.488Z,88.65
2018-11-29T05:18:12.256Z,89.52
2018-11-29T05:20:41.928Z,89.79
2018-11-29T05:23:11.788Z,90.16
2018-11-29T05:25:42.086Z,90.32
2018-11-29T05:28:10.300Z,90.12
2018-11-29T05:30:38.536Z,90.51
2018-11-29T05:33:06.709Z,90.85
2018-11-29T05:35:34.986Z,91.89
2018-11-29T05:38:04.097Z,91.77
2018-11-29T05:40:32.276Z,91.50
2018-11-29T05:43:00.498Z,91.32
2018-11-29T05:45:28.786Z,90.56
2018-11-29T05:47:56.973Z,90.62
2018-11-29T05:50:25.498Z,89.81
2018-11-29T05:52:53.733Z,90.16
2018-11-29T05:55:22.005Z,90.66
2018-11-29T05:57:50.334Z,90.62
2018-11-29T06:00:18.659Z,90.37
2018-11-29T06:02:46.856Z,92.80
2018-11-29T06:05:16.125Z,94.42
2018-11-29T06:07:44.289Z,94.04
2018-11-29T06:10:12.542Z,94.28
2018-11-29T06:12:40.799Z,94.14
2018-11-29T06:15:10.728Z,94.50
2018-11-29T06:17:38.958Z,94.13
2018-11-29T06:20:14.975Z,93.42
2018-11-29T06:22:43.210Z,92.99
2018-11-29T06:25:11.652Z,92.49
2018-11-29T06:27:39.870Z,92.15
2018-11-29T06:30:12.691Z,91.50
2018-11-29T06:32:40.896Z,91.30
2018-11-29T06:35:09.057Z,91.63
2018-11-29T06:37:37.358Z,91.03
2018-11-29T06:40:07.964Z,91.28
2018-11-29T06:42:36.346Z,90.40
2018-11-29T06:45:05.226Z,90.23
2018-11-29T06:47:33.506Z,90.85
2018-11-29T06:50:01.750Z,90.52
2018-11-29T06:52:29.922Z,91.40
2018-11-29T06:54:58.240Z,92.55
2018-11-29T06:57:26.418Z,92.61
2018-11-29T06:59:54.654Z,93.40
2018-11-29T07:02:22.886Z,92.72
2018-11-29T07:04:51.120Z,91.08
2018-11-29T07:07:19.280Z,90.30
2018-11-29T07:09:47.510Z,91.06
2018-11-29T07:12:15.682Z,91.60
2018-11-29T07:14:43.914Z,91.33
2018-11-29T07:17:12.861Z,91.48
2018-11-29T07:19:41.077Z,90.95
2018-11-29T07:22:09.377Z,90.64
2018-11-29T07:24:37.551Z,91.52
2018-11-29T07:27:05.817Z,91.92
2018-11-29T07:29:34.544Z,92.71
2018-11-29T07:32:02.762Z,92.85
2018-11-29T07:34:30.955Z,92.90
2018-11-29T07:36:59.472Z,92.77
2018-11-29T07:39:27.668Z,92.82
2018-11-29T07:41:55.900Z,93.62
2018-11-29T07:44:24.178Z,92.88
2018-11-29T07:46:52.438Z,92.71
2018-11-29T07:49:20.703Z,92.88
2018-11-29T07:51:48.886Z,92.83
2018-11-29T07:54:17.168Z,92.85
2018-11-29T07:56:45.390Z,93.83
2018-11-29T07:59:13.615Z,93.58
2018-11-29T08:01:41.792Z,93.46
2018-11-29T08:04:09.980Z,93.40
2018-11-29T08:06:38.151Z,92.07
2018-11-29T08:09:07.634Z,91.04
2018-11-29T08:11:35.842Z,90.27
2018-11-29T08:14:04.008Z,90.58
2018-11-29T08:16:35.270Z,90.88
2018-11-29T08:19:03.465Z,90.18
2018-11-29T08:21:31.745Z,90.11
2018-11-29T08:23:59.956Z,90.10
2018-11-29T08:26:28.235Z,90.55
2018-11-29T08:28:56.422Z,90.60
2018-11-29T08:31:24.627Z,90.81
2018-11-29T08:33:52.804Z,90.27
2018-11-29T08:36:21.092Z,90.75
2018-11-29T08:38:52.769Z,92.15
2018-11-29T08:41:21.002Z,92.67
2018-11-29T08:43:49.218Z,92.40
2018-11-29T08:46:18.246Z,92.07
2018-11-29T08:48:46.401Z,92.01
2018-11-29T08:51:14.584Z,93.18
2018-11-29T08:53:42.936Z,92.45
2018-11-29T08:56:11.097Z,92.98
2018-11-29T08:58:39.342Z,93.22
2018-11-29T09:01:07.610Z,92.90
2018-11-29T09:03:35.839Z,92.24
2018-11-29T09:06:04.110Z,91.72
2018-11-29T09:08:32.745Z,91.56
2018-11-29T09:11:00.973Z,91.88
2018-11-29T09:13:29.144Z,91.95
2018-11-29T09:15:58.605Z,91.69
2018-11-29T09:18:26.786Z,91.34
2018-11-29T09:20:55.053Z,91.64
2018-11-29T09:23:24.550Z,91.17
2018-11-29T09:25:52.732Z,90.48
2018-11-29T09:28:20.961Z,90.54
2018-11-29T09:30:49.244Z,90.75
2018-11-29T09:33:17.434Z,90.51
2018-11-29T09:35:45.678Z,90.12
2018-11-29T09:38:14.066Z,90.84
2018-11-29T09:40:42.229Z,90.75
2018-11-29T09:43:10.411Z,89.66
2018-11-29T09:45:38.673Z,91.10
2018-11-29T09:48:06.981Z,91.96
2018-11-29T09:50:35.243Z,90.75
2018-11-29T09:53:03.417Z,89.50
2018-11-29T09:55:35.607Z,89.53
2018-11-29T09:58:04.471Z,88.62
2018-11-29T10:00:33.885Z,88.88
2018-11-29T10:03:05.310Z,89.41
2018-11-29T10:05:33.599Z,89.55
2018-11-29T10:08:01.836Z,91.08
2018-11-29T10:10:30.143Z,90.45
2018-11-29T10:12:58.448Z,91.01
2018-11-29T10:15:26.601Z,90.94
2018-11-29T10:17:54.797Z,90.11
2018-11-29T10:20:22.955Z,90.37
2018-11-29T10:22:51.213Z,90.20
2018-11-29T10:25:20.146Z,90.30
2018-11-29T10:27:50.107Z,90.93
2018-11-29T10:30:23.205Z,91.25
2018-11-29T10:32:52.356Z,90.92
2018-11-29T10:35:20.569Z,90.24
2018-11-29T10:37:48.848Z,89.84
2018-11-29T10:40:17.305Z,90.96
2018-11-29T10:42:45.621Z,91.51
2018-11-29T10:45:17.729Z,90.93
2018-11-29T10:47:52.297Z,89.48
2018-11-29T10:50:16.906Z,90.69
2018-11-29T10:52:45.179Z,87.27
2018-11-29T10:55:18.143Z,85.67
2018-11-29T10:57:46.323Z,86.46
2018-11-29T11:00:35.042Z,83.46
2018-11-29T11:03:10.901Z,83.10
2018-11-29T11:05:39.082Z,83.25
2018-11-29T11:08:09.106Z,82.70
2018-11-29T11:10:38.121Z,85.04
2018-11-29T11:13:06.809Z,83.95
2018-11-29T11:15:35.083Z,84.13
2018-11-29T11:18:03.477Z,81.89
2018-11-29T11:20:33.318Z,83.30
2018-11-29T11:23:03.864Z,84.00
2018-11-29T11:25:32.058Z,82.86
2018-11-29T11:28:00.284Z,81.14
2018-11-29T11:30:28.456Z,80.18
2018-11-29T11:32:56.690Z,80.96
2018-11-29T11:35:28.093Z,81.11
2018-11-29T11:37:56.284Z,80.12
2018-11-29T11:40:25.421Z,79.19
2018-11-29T11:42:53.737Z,79.05
2018-11-29T11:45:22.087Z,77.68
2018-11-29T11:48:02.936Z,79.71
2018-11-29T11:50:25.420Z,80.18
2018-11-29T11:52:55.406Z,79.51
2018-11-29T11:55:30.110Z,78.92
2018-11-29T11:57:51.895Z,78.05
2018-11-29T12:00:22.501Z,78.66
2018-11-29T12:02:54.937Z,78.06
2018-11-29T12:05:23.115Z,79.64
2018-11-29T12:07:51.501Z,79.06
2018-11-29T12:10:21.649Z,78.74
2018-11-29T12:12:50.938Z,77.22
2018-11-29T12:15:20.789Z,75.65
2018-11-29T12:17:49.464Z,75.65
2018-11-29T12:20:19.510Z,76.08
2018-11-29T12:22:47.804Z,78.20
2018-11-29T12:25:21.146Z,77.59
2018-11-29T12:27:49.689Z,79.20
2018-11-29T12:30:21.137Z,78.59
2018-11-29T12:32:49.390Z,78.72
2018-11-29T12:35:17.582Z,77.66
2018-11-29T12:37:45.843Z,78.00
2018-11-29T12:40:15.168Z,78.44
2018-11-29T12:42:43.423Z,77.70
2018-11-29T12:45:13.689Z,78.74
2018-11-29T12:47:42.235Z,80.12
2018-11-29T12:50:22.783Z,77.37
2018-11-29T12:52:51.075Z,75.21
2018-11-29T12:55:20.177Z,75.28
2018-11-29T12:58:04.648Z,75.23
2018-11-29T13:00:20.704Z,73.10
2018-11-29T13:02:58.686Z,78.95
2018-11-29T13:05:27.708Z,77.70
2018-11-29T13:07:56.094Z,77.43
2018-11-29T13:10:25.437Z,77.10
2018-11-29T13:12:53.875Z,77.91
2018-11-29T13:15:25.343Z,75.33
2018-11-29T13:17:54.841Z,77.92
2018-11-29T13:20:23.104Z,77.25
2018-11-29T13:22:51.334Z,78.29
2018-11-29T13:25:20.512Z,78.45
2018-11-29T13:27:48.799Z,76.69
2018-11-29T13:30:19.308Z,75.18
2018-11-29T13:32:48.524Z,77.19
2018-11-29T13:35:20.393Z,77.29
2018-11-29T13:38:00.485Z,76.92
2018-11-29T13:40:29.002Z,74.44
2018-11-29T13:42:57.246Z,73.95
2018-11-29T13:45:26.497Z,72.65
2018-11-29T13:47:54.667Z,70.86
2018-11-29T13:50:22.941Z,69.33
2018-11-29T13:52:51.188Z,70.88
2018-11-29T13:55:19.430Z,70.91
2018-11-29T13:57:48.938Z,70.87
2018-11-29T14:00:18.157Z,70.41
2018-11-29T14:02:47.541Z,70.02
2018-11-29T14:05:15.766Z,70.81
2018-11-29T14:07:44.441Z,70.20
2018-11-29T14:10:15.816Z,70.84
2018-11-29T14:12:44.739Z,70.08
2018-11-29T14:15:14.946Z,70.94
2018-11-29T14:17:43.254Z,70.03
2018-11-29T14:20:12.587Z,70.36
2018-11-29T14:22:40.912Z,70.38
2018-11-29T14:25:10.434Z,70.03
2018-11-29T14:27:38.717Z,70.26
2018-11-29T14:30:27.707Z,70.13
2018-11-29T14:32:57.058Z,70.16
2018-11-29T14:35:26.097Z,70.35
2018-11-29T14:37:54.313Z,69.59
2018-11-29T14:40:23.642Z,72.96
2018-11-29T14:42:53.151Z,72.31
2018-11-29T14:45:25.416Z,72.48
2018-11-29T14:47:53.993Z,73.45
2018-11-29T14:50:38.389Z,73.83
2018-11-29T14:53:07.873Z,74.89
2018-11-29T14:55:36.727Z,75.09
2018-11-29T14:58:05.306Z,76.93
2018-11-29T15:00:33.605Z,76.25
2018-11-29T15:03:03.512Z,74.33
2018-11-29T15:05:32.312Z,75.62
2018-11-29T15:08:00.877Z,75.76
2018-11-29T15:10:29.161Z,74.85
2018-11-29T15:12:57.425Z,76.02
2018-11-29T15:15:25.738Z,76.69
2018-11-29T15:17:54.570Z,77.41
2018-11-29T15:20:54.728Z,78.01
2018-11-29T15:23:22.977Z,79.51
2018-11-29T15:25:51.522Z,78.30
2018-11-29T15:28:19.822Z,78.45
2018-11-29T15:30:48.161Z,78.85
2018-11-29T15:33:16.377Z,79.05
2018-11-29T15:35:45.451Z,83.56
2018-11-29T15:38:13.674Z,84.53
2018-11-29T15:40:41.946Z,83.57
2018-11-29T15:43:10.884Z,82.46
2018-11-29T15:45:39.112Z,82.60
2018-11-29T15:48:07.422Z,83.38
2018-11-29T15:50:35.674Z,83.40
2018-11-29T15:53:03.842Z,83.12
2018-11-29T15:55:32.021Z,84.49
2018-11-29T15:58:00.213Z,83.88
2018-11-29T16:00:29.533Z,84.38
2018-11-29T16:03:01.119Z,83.02
2018-11-29T16:05:29.405Z,82.42
2018-11-29T16:07:57.577Z,83.24
2018-11-29T16:10:29.687Z,85.75
2018-11-29T16:12:57.854Z,86.09
2018-11-29T16:15:26.098Z,85.96
2018-11-29T16:17:54.373Z,86.34
2018-11-29T16:20:26.629Z,86.71
2018-11-29T16:22:54.877Z,87.31
2018-11-29T16:25:23.050Z,86.27
2018-11-29T16:27:51.427Z,86.56
2018-11-29T16:30:37.464Z,85.96
2018-11-29T16:33:13.929Z,85.93
2018-11-29T16:35:42.289Z,88.05
2018-11-29T16:38:10.588Z,87.04
2018-11-29T16:40:38.773Z,87.08
2018-11-29T16:43:07.668Z,87.49
2018-11-29T16:45:36.533Z,86.97
2018-11-29T16:48:06.617Z,86.55
2018-11-29T16:50:34.950Z,86.56
2018-11-29T16:53:03.162Z,86.55
2018-11-29T16:55:31.399Z,87.00
2018-11-29T16:58:01.502Z,87.64
2018-11-29T17:00:29.778Z,87.72
2018-11-29T17:02:58.143Z,88.23
2018-11-29T17:05:26.326Z,87.66
2018-11-29T17:07:54.601Z,88.02
2018-11-29T17:10:24.504Z,87.47
2018-11-29T17:12:56.905Z,87.43
2018-11-29T17:15:25.194Z,87.46
2018-11-29T17:17:53.426Z,86.77
2018-11-29T17:20:21.709Z,87.41
2018-11-29T17:22:50.833Z,86.79
2018-11-29T17:25:19.270Z,86.79
2018-11-29T17:27:47.471Z,87.05
2018-11-29T17:30:23.199Z,87.21
2018-11-29T17:32:52.422Z,87.16
2018-11-29T17:35:20.695Z,86.56
2018-11-29T17:37:49.089Z,87.05
2018-11-29T17:40:18.453Z,86.71
2018-11-29T17:42:48.109Z,86.94
2018-11-29T17:45:22.442Z,87.21
2018-11-29T17:47:52.106Z,87.17
2018-11-29T17:50:24.795Z,87.07
2018-11-29T17:52:52.973Z,87.83
2018-11-29T17:55:22.258Z,86.53
2018-11-29T17:57:50.516Z,87.06
2018-11-29T18:00:21.779Z,86.10
2018-11-29T18:02:50.057Z,86.93
2018-11-29T18:05:18.272Z,86.46
2018-11-29T18:07:46.452Z,86.67
2018-11-29T18:10:16.121Z,86.34
2018-11-29T18:12:44.840Z,86.26
2018-11-29T18:15:14.817Z,85.54
2018-11-29T18:17:42.969Z,86.27
2018-11-29T18:20:13.459Z,86.18
2018-11-29T18:22:41.895Z,86.21
2018-11-29T18:25:12.445Z,85.34
2018-11-29T18:27:41.927Z,85.32
2018-11-29T18:30:13.289Z,85.76
2018-11-29T18:32:41.611Z,86.01
2018-11-29T18:35:10.985Z,86.09
2018-11-29T18:37:39.326Z,85.69
2018-11-29T18:40:14.250Z,86.14
2018-11-29T18:42:42.419Z,85.94
2018-11-29T18:45:14.006Z,85.99
2018-11-29T18:47:42.902Z,87.06
2018-11-29T18:50:18.988Z,86.99
2018-11-29T18:52:47.322Z,87.06
2018-11-29T18:55:15.682Z,85.83
2018-11-29T18:57:43.845Z,86.43
2018-11-29T19:00:16.388Z,86.73
2018-11-29T19:02:44.557Z,87.26
2018-11-29T19:05:12.791Z,86.38
2018-11-29T19:07:42.868Z,87.27
2018-11-29T19:10:12.945Z,86.77
2018-11-29T19:13:13.427Z,86.04
2018-11-29T19:15:41.727Z,84.67
2018-11-29T19:18:10.699Z,84.99
2018-11-29T19:20:38.899Z,84.71
2018-11-29T19:23:07.262Z,84.24
2018-11-29T19:25:35.753Z,84.77
2018-11-29T19:28:03.958Z,85.31
2018-11-29T19:30:32.397Z,85.36
2018-11-29T19:33:20.785Z,85.84
2018-11-29T19:35:52.294Z,86.07
2018-11-29T19:38:20.469Z,85.77
2018-11-29T19:40:48.719Z,85.23
2018-11-29T19:43:16.958Z,84.90
2018-11-29T19:45:45.245Z,85.10
2018-11-29T19:48:13.511Z,85.91
2018-11-29T19:50:41.637Z,85.53
2018-11-29T19:53:14.356Z,85.51
2018-11-29T19:55:42.689Z,84.95
2018-11-29T19:58:10.873Z,85.17
2018-11-29T20:00:40.125Z,85.34
2018-11-29T20:03:08.465Z,85.57
2018-11-29T20:05:36.729Z,85.20
2018-11-29T20:08:06.144Z,84.91
2018-11-29T20:10:34.524Z,85.37
2018-11-29T20:13:05.755Z,86.36
2018-11-29T20:15:35.309Z,85.95
2018-11-29T20:18:03.533Z,86.71
2018-11-29T20:20:31.837Z,87.15
2018-11-29T20:23:00.086Z,86.80
2018-11-29T20:25:28.255Z,86.88
2018-11-29T20:27:56.446Z,87.59
2018-11-29T20:30:24.855Z,87.46
2018-11-29T20:32:54.117Z,88.38
2018-11-29T20:35:22.320Z,88.16
2018-11-29T20:37:51.583Z,87.78
2018-11-29T20:40:24.864Z,86.82
2018-11-29T20:42:54.387Z,87.37
2018-11-29T20:45:31.071Z,87.44
2018-11-29T20:47:59.337Z,87.38
2018-11-29T20:50:29.032Z,87.20
2018-11-29T20:52:58.749Z,87.50
2018-11-29T20:55:31.332Z,87.17
2018-11-29T20:57:59.625Z,87.92
2018-11-29T21:00:28.645Z,87.74
2018-11-29T21:02:56.870Z,87.37
2018-11-29T21:05:25.571Z,87.81
2018-11-29T21:08:01.808Z,89.69
2018-11-29T21:10:29.974Z,90.35
2018-11-29T21:13:02.478Z,89.66
2018-11-29T21:15:30.739Z,89.43
2018-11-29T21:17:58.905Z,89.65
2018-11-29T21:20:27.168Z,88.81
2018-11-29T21:22:55.351Z,88.58
2018-11-29T21:25:24.777Z,89.00
2018-11-29T21:27:52.973Z,88.97
2018-11-29T21:30:21.216Z,88.24
2018-11-29T21:32:50.038Z,88.61
2018-11-29T21:35:21.552Z,88.80
2018-11-29T21:37:50.668Z,88.42
2018-11-29T21:40:28.376Z,88.80
2018-11-29T21:42:56.660Z,88.76
2018-11-29T21:45:24.922Z,88.09
2018-11-29T21:47:53.170Z,88.34
2018-11-29T21:50:21.480Z,88.16
2018-11-29T21:52:49.653Z,88.77
2018-11-29T21:55:17.904Z,89.43
2018-11-29T21:57:46.112Z,90.04
2018-11-29T22:00:15.587Z,89.19
2018-11-29T22:02:45.390Z,89.12
2018-11-29T22:05:13.590Z,88.91
2018-11-29T22:07:41.833Z,88.29
2018-11-29T22:10:10.033Z,88.08
2018-11-29T22:12:38.296Z,87.24
2018-11-29T22:15:10.273Z,86.68
2018-11-29T22:18:48.787Z,88.58
2018-11-29T22:21:17.105Z,90.44
2018-11-29T22:23:45.278Z,89.98
2018-11-29T22:26:14.905Z,89.88
2018-11-29T22:28:43.198Z,89.11
2018-11-29T22:31:11.360Z,89.23
2018-11-29T22:33:39.645Z,88.26
2018-11-29T22:36:07.986Z,87.51
2018-11-29T22:38:36.215Z,87.84
2018-11-29T22:41:04.501Z,87.58
2018-11-29T22:43:32.750Z,87.34
2018-11-29T22:46:01.094Z,87.41
2018-11-29T22:48:29.309Z,87.13
2018-11-29T22:50:58.077Z,87.69
2018-11-29T22:53:26.903Z,87.91
2018-11-29T22:55:55.973Z,87.95
2018-11-29T22:58:24.172Z,88.44
2018-11-29T23:00:52.999Z,88.67
2018-11-29T23:03:21.559Z,88.78
2018-11-29T23:05:49.840Z,87.81
2018-11-29T23:08:18.206Z,88.66
2018-11-29T23:10:46.407Z,88.47
2018-11-29T23:13:14.580Z,88.46
2018-11-29T23:15:42.744Z,88.66
2018-11-29T23:18:11.957Z,88.17
2018-11-29T23:20:40.128Z,88.41
2018-11-29T23:23:08.493Z,88.09
2018-11-29T23:25:36.904Z,87.87
2018-11-29T23:28:06.189Z,87.65
2018-11-29T23:30:34.482Z,87.80
2018-11-29T23:33:02.781Z,87.58
2018-11-29T23:35:31.090Z,87.47
2018-11-29T23:37:59.264Z,88.12
2018-11-29T23:40:27.504Z,87.84
2018-11-29T23:42:55.798Z,88.32
2018-11-29T23:45:24.138Z,89.27
2018-11-29T23:47:52.362Z,88.30
2018-11-29T23:50:22.392Z,88.91
2018-11-29T23:52:50.631Z,88.37
2018-11-29T23:55:20.119Z,88.26
2018-11-29T23:57:48.414Z,87.33
